sensor_id;sensor_type;location;lat;lon;timestamp;temperature;humidity
16477;DHT22;8349;50.928;6.376;2022-09-06T00:00:23;20.80;99.90
16477;DHT22;8349;50.928;6.376;2022-09-06T00:02:50;20.80;99.90
16477;DHT22;8349;50.928;6.376;2022-09-06T00:05:17;20.60;99.90
16477;DHT22;8349;50.928;6.376;2022-09-06T00:07:44;20.60;99.90
16477;DHT22;8349;50.928;6.376;2022-09-06T00:10:11;20.50;99.90
16477;DHT22;8349;50.928;6.376;2022-09-06T00:12:39;20.50;99.90
16477;DHT22;8349;50.928;6.376;2022-09-06T00:15:06;20.50;99.90
16477;DHT22;8349;50.928;6.376;2022-09-06T00:17:35;20.40;99.90
16477;DHT22;8349;50.928;6.376;2022-09-06T00:20:02;20.40;99.90
16477;DHT22;8349;50.928;6.376;2022-09-06T00:22:29;20.40;99.90
16477;DHT22;8349;50.928;6.376;2022-09-06T00:24:55;20.40;99.90
16477;DHT22;8349;50.928;6.376;2022-09-06T00:27:22;20.40;99.90
16477;DHT22;8349;50.928;6.376;2022-09-06T00:29:49;20.30;99.90
16477;DHT22;8349;50.928;6.376;2022-09-06T00:32:16;20.30;99.90
16477;DHT22;8349;50.928;6.376;2022-09-06T00:34:44;20.10;99.90
16477;DHT22;8349;50.928;6.376;2022-09-06T00:37:11;20.10;99.90
16477;DHT22;8349;50.928;6.376;2022-09-06T00:39:37;19.90;99.90
16477;DHT22;8349;50.928;6.376;2022-09-06T00:42:06;19.80;99.90
16477;DHT22;8349;50.928;6.376;2022-09-06T00:44:33;19.80;99.90
16477;DHT22;8349;50.928;6.376;2022-09-06T00:47:00;19.70;99.90
16477;DHT22;8349;50.928;6.376;2022-09-06T00:49:28;19.70;99.90
16477;DHT22;8349;50.928;6.376;2022-09-06T00:51:58;19.70;99.90
16477;DHT22;8349;50.928;6.376;2022-09-06T00:54:26;19.50;99.90
16477;DHT22;8349;50.928;6.376;2022-09-06T00:56:53;19.40;99.90
16477;DHT22;8349;50.928;6.376;2022-09-06T00:59:20;19.30;99.90
16477;DHT22;8349;50.928;6.376;2022-09-06T01:01:50;19.10;99.90
16477;DHT22;8349;50.928;6.376;2022-09-06T01:04:17;19.00;99.90
16477;DHT22;8349;50.928;6.376;2022-09-06T01:06:46;19.10;99.90
16477;DHT22;8349;50.928;6.376;2022-09-06T01:09:23;19.20;99.90
16477;DHT22;8349;50.928;6.376;2022-09-06T01:11:55;19.20;99.90
16477;DHT22;8349;50.928;6.376;2022-09-06T01:14:28;19.20;99.90
16477;DHT22;8349;50.928;6.376;2022-09-06T01:16:59;19.10;99.90
16477;DHT22;8349;50.928;6.376;2022-09-06T01:19:31;19.00;99.90
16477;DHT22;8349;50.928;6.376;2022-09-06T01:22:05;19.00;99.90
16477;DHT22;8349;50.928;6.376;2022-09-06T01:24:52;18.90;99.90
16477;DHT22;8349;50.928;6.376;2022-09-06T01:27:37;18.90;99.90
16477;DHT22;8349;50.928;6.376;2022-09-06T01:30:08;18.80;99.90
16477;DHT22;8349;50.928;6.376;2022-09-06T01:32:37;18.90;99.90
16477;DHT22;8349;50.928;6.376;2022-09-06T01:35:09;18.80;99.90
16477;DHT22;8349;50.928;6.376;2022-09-06T01:37:39;18.90;99.90
16477;DHT22;8349;50.928;6.376;2022-09-06T01:40:07;19.00;99.90
16477;DHT22;8349;50.928;6.376;2022-09-06T01:42:33;18.90;99.90
16477;DHT22;8349;50.928;6.376;2022-09-06T01:45:03;18.90;99.90
16477;DHT22;8349;50.928;6.376;2022-09-06T01:47:34;18.90;99.90
16477;DHT22;8349;50.928;6.376;2022-09-06T01:50:08;18.90;99.90
16477;DHT22;8349;50.928;6.376;2022-09-06T01:52:39;18.90;99.90
16477;DHT22;8349;50.928;6.376;2022-09-06T01:55:15;18.90;99.90
16477;DHT22;8349;50.928;6.376;2022-09-06T01:57:49;19.00;99.90
16477;DHT22;8349;50.928;6.376;2022-09-06T02:00:18;19.00;99.90
16477;DHT22;8349;50.928;6.376;2022-09-06T02:02:51;19.00;99.90
16477;DHT22;8349;50.928;6.376;2022-09-06T02:05:21;19.10;99.90
16477;DHT22;8349;50.928;6.376;2022-09-06T02:07:48;19.20;99.90
16477;DHT22;8349;50.928;6.376;2022-09-06T02:10:19;19.20;99.90
16477;DHT22;8349;50.928;6.376;2022-09-06T02:12:48;19.10;99.90
16477;DHT22;8349;50.928;6.376;2022-09-06T02:15:20;19.10;99.90
16477;DHT22;8349;50.928;6.376;2022-09-06T02:17:49;19.00;99.90
16477;DHT22;8349;50.928;6.376;2022-09-06T02:20:19;19.00;99.90
16477;DHT22;8349;50.928;6.376;2022-09-06T02:22:46;18.90;99.90
16477;DHT22;8349;50.928;6.376;2022-09-06T02:25:15;18.90;99.90
16477;DHT22;8349;50.928;6.376;2022-09-06T02:27:44;18.80;99.90
16477;DHT22;8349;50.928;6.376;2022-09-06T02:30:11;18.60;99.90
16477;DHT22;8349;50.928;6.376;2022-09-06T02:32:41;18.50;99.90
16477;DHT22;8349;50.928;6.376;2022-09-06T02:35:11;18.50;99.90
16477;DHT22;8349;50.928;6.376;2022-09-06T02:37:39;18.40;99.90
16477;DHT22;8349;50.928;6.376;2022-09-06T02:40:07;18.40;99.90
16477;DHT22;8349;50.928;6.376;2022-09-06T02:42:34;18.20;99.90
16477;DHT22;8349;50.928;6.376;2022-09-06T02:45:01;18.10;99.90
16477;DHT22;8349;50.928;6.376;2022-09-06T02:47:29;18.10;99.90
16477;DHT22;8349;50.928;6.376;2022-09-06T02:49:57;18.30;99.90
16477;DHT22;8349;50.928;6.376;2022-09-06T02:52:25;18.30;99.90
16477;DHT22;8349;50.928;6.376;2022-09-06T02:54:52;18.30;99.90
16477;DHT22;8349;50.928;6.376;2022-09-06T02:57:19;18.20;99.90
16477;DHT22;8349;50.928;6.376;2022-09-06T02:59:46;18.10;99.90
16477;DHT22;8349;50.928;6.376;2022-09-06T03:02:13;18.10;99.90
16477;DHT22;8349;50.928;6.376;2022-09-06T03:04:40;18.10;99.90
16477;DHT22;8349;50.928;6.376;2022-09-06T03:07:08;18.10;99.90
16477;DHT22;8349;50.928;6.376;2022-09-06T03:09:35;18.10;99.90
16477;DHT22;8349;50.928;6.376;2022-09-06T03:12:02;18.10;99.90
16477;DHT22;8349;50.928;6.376;2022-09-06T03:14:29;18.10;99.90
16477;DHT22;8349;50.928;6.376;2022-09-06T03:16:55;18.00;99.90
16477;DHT22;8349;50.928;6.376;2022-09-06T03:19:22;17.90;99.90
16477;DHT22;8349;50.928;6.376;2022-09-06T03:21:49;17.80;99.90
16477;DHT22;8349;50.928;6.376;2022-09-06T03:24:17;17.60;99.90
16477;DHT22;8349;50.928;6.376;2022-09-06T03:26:44;17.70;99.90
16477;DHT22;8349;50.928;6.376;2022-09-06T03:29:11;17.70;99.90
16477;DHT22;8349;50.928;6.376;2022-09-06T03:31:37;17.60;99.90
16477;DHT22;8349;50.928;6.376;2022-09-06T03:34:04;17.50;99.90
16477;DHT22;8349;50.928;6.376;2022-09-06T03:36:31;17.40;99.90
16477;DHT22;8349;50.928;6.376;2022-09-06T03:38:58;17.30;99.90
16477;DHT22;8349;50.928;6.376;2022-09-06T03:41:26;17.30;99.90
16477;DHT22;8349;50.928;6.376;2022-09-06T03:43:53;17.20;99.90
16477;DHT22;8349;50.928;6.376;2022-09-06T03:46:20;17.20;99.90
16477;DHT22;8349;50.928;6.376;2022-09-06T03:48:46;17.10;99.90
16477;DHT22;8349;50.928;6.376;2022-09-06T03:51:14;17.10;99.90
16477;DHT22;8349;50.928;6.376;2022-09-06T03:53:41;17.10;99.90
16477;DHT22;8349;50.928;6.376;2022-09-06T03:56:07;17.00;99.90
16477;DHT22;8349;50.928;6.376;2022-09-06T03:58:36;17.00;99.90
16477;DHT22;8349;50.928;6.376;2022-09-06T04:01:03;17.00;99.90
16477;DHT22;8349;50.928;6.376;2022-09-06T04:03:30;17.00;99.90
16477;DHT22;8349;50.928;6.376;2022-09-06T04:05:57;17.00;99.90
16477;DHT22;8349;50.928;6.376;2022-09-06T04:08:24;16.90;99.90
16477;DHT22;8349;50.928;6.376;2022-09-06T04:10:51;16.80;99.90
16477;DHT22;8349;50.928;6.376;2022-09-06T04:13:19;16.80;99.90
16477;DHT22;8349;50.928;6.376;2022-09-06T04:15:47;16.90;99.90
16477;DHT22;8349;50.928;6.376;2022-09-06T04:18:14;16.90;99.90
16477;DHT22;8349;50.928;6.376;2022-09-06T04:20:41;16.80;99.90
16477;DHT22;8349;50.928;6.376;2022-09-06T04:23:08;16.80;99.90
16477;DHT22;8349;50.928;6.376;2022-09-06T04:25:35;16.80;99.90
16477;DHT22;8349;50.928;6.376;2022-09-06T04:28:02;16.70;99.90
16477;DHT22;8349;50.928;6.376;2022-09-06T04:30:28;16.70;99.90
16477;DHT22;8349;50.928;6.376;2022-09-06T04:32:57;16.70;99.90
16477;DHT22;8349;50.928;6.376;2022-09-06T04:35:23;16.70;99.90
16477;DHT22;8349;50.928;6.376;2022-09-06T04:37:50;16.70;99.90
16477;DHT22;8349;50.928;6.376;2022-09-06T04:40:17;16.70;99.90
16477;DHT22;8349;50.928;6.376;2022-09-06T04:42:44;16.70;99.90
16477;DHT22;8349;50.928;6.376;2022-09-06T04:45:11;16.60;99.90
16477;DHT22;8349;50.928;6.376;2022-09-06T04:47:37;16.60;99.90
16477;DHT22;8349;50.928;6.376;2022-09-06T04:50:06;16.60;99.90
16477;DHT22;8349;50.928;6.376;2022-09-06T04:52:33;16.60;99.90
16477;DHT22;8349;50.928;6.376;2022-09-06T04:55:00;16.70;99.90
16477;DHT22;8349;50.928;6.376;2022-09-06T04:57:27;16.70;99.90
16477;DHT22;8349;50.928;6.376;2022-09-06T04:59:53;16.70;99.90
16477;DHT22;8349;50.928;6.376;2022-09-06T05:02:20;16.70;99.90
16477;DHT22;8349;50.928;6.376;2022-09-06T05:04:47;16.70;99.90
16477;DHT22;8349;50.928;6.376;2022-09-06T05:07:15;16.70;99.90
16477;DHT22;8349;50.928;6.376;2022-09-06T05:09:42;16.70;99.90
16477;DHT22;8349;50.928;6.376;2022-09-06T05:12:08;16.80;99.90
16477;DHT22;8349;50.928;6.376;2022-09-06T05:14:35;16.80;99.90
16477;DHT22;8349;50.928;6.376;2022-09-06T05:17:02;16.90;99.90
16477;DHT22;8349;50.928;6.376;2022-09-06T05:19:29;16.90;99.90
16477;DHT22;8349;50.928;6.376;2022-09-06T05:21:56;16.90;99.90
16477;DHT22;8349;50.928;6.376;2022-09-06T05:24:24;16.90;99.90
16477;DHT22;8349;50.928;6.376;2022-09-06T05:26:51;17.00;99.90
16477;DHT22;8349;50.928;6.376;2022-09-06T05:29:17;17.00;99.90
16477;DHT22;8349;50.928;6.376;2022-09-06T05:31:44;17.00;99.90
16477;DHT22;8349;50.928;6.376;2022-09-06T05:34:11;17.10;99.90
16477;DHT22;8349;50.928;6.376;2022-09-06T05:36:39;17.20;99.90
16477;DHT22;8349;50.928;6.376;2022-09-06T05:39:06;17.20;99.90
16477;DHT22;8349;50.928;6.376;2022-09-06T05:41:34;17.20;99.90
16477;DHT22;8349;50.928;6.376;2022-09-06T05:44:01;17.20;99.90
16477;DHT22;8349;50.928;6.376;2022-09-06T05:46:28;17.20;99.90
16477;DHT22;8349;50.928;6.376;2022-09-06T05:48:55;17.10;99.90
16477;DHT22;8349;50.928;6.376;2022-09-06T05:51:25;17.10;99.90
16477;DHT22;8349;50.928;6.376;2022-09-06T05:53:52;17.10;99.90
16477;DHT22;8349;50.928;6.376;2022-09-06T05:56:19;17.10;99.90
16477;DHT22;8349;50.928;6.376;2022-09-06T05:58:48;17.20;99.90
16477;DHT22;8349;50.928;6.376;2022-09-06T06:01:16;17.20;99.90
16477;DHT22;8349;50.928;6.376;2022-09-06T06:03:48;17.30;99.90
16477;DHT22;8349;50.928;6.376;2022-09-06T06:06:15;17.30;99.90
16477;DHT22;8349;50.928;6.376;2022-09-06T06:08:42;17.40;99.90
16477;DHT22;8349;50.928;6.376;2022-09-06T06:11:09;17.50;99.90
16477;DHT22;8349;50.928;6.376;2022-09-06T06:13:36;17.50;99.90
16477;DHT22;8349;50.928;6.376;2022-09-06T06:16:05;17.60;99.90
16477;DHT22;8349;50.928;6.376;2022-09-06T06:18:32;17.80;99.90
16477;DHT22;8349;50.928;6.376;2022-09-06T06:21:06;17.90;99.90
16477;DHT22;8349;50.928;6.376;2022-09-06T06:23:33;18.00;99.90
16477;DHT22;8349;50.928;6.376;2022-09-06T06:26:00;18.10;99.90
16477;DHT22;8349;50.928;6.376;2022-09-06T06:28:27;18.20;99.90
16477;DHT22;8349;50.928;6.376;2022-09-06T06:30:53;18.40;99.90
16477;DHT22;8349;50.928;6.376;2022-09-06T06:33:22;18.50;99.90
16477;DHT22;8349;50.928;6.376;2022-09-06T06:35:55;18.60;99.90
16477;DHT22;8349;50.928;6.376;2022-09-06T06:38:22;18.80;99.90
16477;DHT22;8349;50.928;6.376;2022-09-06T06:40:49;18.90;99.90
16477;DHT22;8349;50.928;6.376;2022-09-06T06:43:16;18.90;99.90
16477;DHT22;8349;50.928;6.376;2022-09-06T06:45:46;19.00;99.90
16477;DHT22;8349;50.928;6.376;2022-09-06T06:48:13;19.10;99.90
16477;DHT22;8349;50.928;6.376;2022-09-06T06:50:41;19.20;99.90
16477;DHT22;8349;50.928;6.376;2022-09-06T06:53:08;19.20;99.90
16477;DHT22;8349;50.928;6.376;2022-09-06T06:55:35;19.30;99.90
16477;DHT22;8349;50.928;6.376;2022-09-06T06:58:02;19.40;99.90
16477;DHT22;8349;50.928;6.376;2022-09-06T07:00:29;19.50;99.90
16477;DHT22;8349;50.928;6.376;2022-09-06T07:02:55;19.60;99.90
16477;DHT22;8349;50.928;6.376;2022-09-06T07:05:23;19.60;99.90
16477;DHT22;8349;50.928;6.376;2022-09-06T07:07:52;19.70;99.90
16477;DHT22;8349;50.928;6.376;2022-09-06T07:10:18;19.80;99.90
16477;DHT22;8349;50.928;6.376;2022-09-06T07:12:45;19.90;99.90
16477;DHT22;8349;50.928;6.376;2022-09-06T07:15:12;20.00;99.90
16477;DHT22;8349;50.928;6.376;2022-09-06T07:17:39;20.10;99.90
16477;DHT22;8349;50.928;6.376;2022-09-06T07:20:06;20.10;99.90
16477;DHT22;8349;50.928;6.376;2022-09-06T07:22:33;20.30;99.90
16477;DHT22;8349;50.928;6.376;2022-09-06T07:25:02;20.40;99.90
16477;DHT22;8349;50.928;6.376;2022-09-06T07:27:28;20.50;99.90
16477;DHT22;8349;50.928;6.376;2022-09-06T07:29:55;20.60;99.90
16477;DHT22;8349;50.928;6.376;2022-09-06T07:32:22;20.70;99.90
16477;DHT22;8349;50.928;6.376;2022-09-06T07:34:49;20.80;99.90
16477;DHT22;8349;50.928;6.376;2022-09-06T07:37:16;20.90;99.90
16477;DHT22;8349;50.928;6.376;2022-09-06T07:39:42;21.00;99.90
16477;DHT22;8349;50.928;6.376;2022-09-06T07:42:11;21.10;99.90
16477;DHT22;8349;50.928;6.376;2022-09-06T07:44:37;21.10;99.90
16477;DHT22;8349;50.928;6.376;2022-09-06T07:47:04;21.20;99.90
16477;DHT22;8349;50.928;6.376;2022-09-06T07:49:32;21.30;99.90
16477;DHT22;8349;50.928;6.376;2022-09-06T07:51:59;21.40;99.90
16477;DHT22;8349;50.928;6.376;2022-09-06T07:54:26;21.60;99.90
16477;DHT22;8349;50.928;6.376;2022-09-06T07:56:52;21.60;99.90
16477;DHT22;8349;50.928;6.376;2022-09-06T07:59:21;21.70;99.90
16477;DHT22;8349;50.928;6.376;2022-09-06T08:01:47;21.80;99.90
16477;DHT22;8349;50.928;6.376;2022-09-06T08:04:14;21.90;99.90
16477;DHT22;8349;50.928;6.376;2022-09-06T08:06:42;21.90;99.90
16477;DHT22;8349;50.928;6.376;2022-09-06T08:09:10;22.00;99.90
16477;DHT22;8349;50.928;6.376;2022-09-06T08:11:38;22.00;99.90
16477;DHT22;8349;50.928;6.376;2022-09-06T08:14:05;22.00;99.90
16477;DHT22;8349;50.928;6.376;2022-09-06T08:16:34;22.10;99.90
16477;DHT22;8349;50.928;6.376;2022-09-06T08:19:03;22.20;99.90
16477;DHT22;8349;50.928;6.376;2022-09-06T08:21:32;22.30;99.90
16477;DHT22;8349;50.928;6.376;2022-09-06T08:23:59;22.40;99.90
16477;DHT22;8349;50.928;6.376;2022-09-06T08:26:27;22.50;99.90
16477;DHT22;8349;50.928;6.376;2022-09-06T08:28:54;22.60;99.90
16477;DHT22;8349;50.928;6.376;2022-09-06T08:31:22;22.60;99.90
16477;DHT22;8349;50.928;6.376;2022-09-06T08:33:50;22.70;99.90
16477;DHT22;8349;50.928;6.376;2022-09-06T08:36:17;22.90;99.90
16477;DHT22;8349;50.928;6.376;2022-09-06T08:38:44;22.90;99.90
16477;DHT22;8349;50.928;6.376;2022-09-06T08:41:16;23.00;99.90
16477;DHT22;8349;50.928;6.376;2022-09-06T08:43:45;23.10;99.90
16477;DHT22;8349;50.928;6.376;2022-09-06T08:46:13;23.20;99.90
16477;DHT22;8349;50.928;6.376;2022-09-06T08:48:41;23.30;99.90
16477;DHT22;8349;50.928;6.376;2022-09-06T08:51:14;23.40;99.90
16477;DHT22;8349;50.928;6.376;2022-09-06T08:53:48;23.40;99.90
16477;DHT22;8349;50.928;6.376;2022-09-06T08:56:15;23.50;99.90
16477;DHT22;8349;50.928;6.376;2022-09-06T08:58:54;23.60;99.90
16477;DHT22;8349;50.928;6.376;2022-09-06T09:01:23;23.70;99.90
16477;DHT22;8349;50.928;6.376;2022-09-06T09:03:50;23.70;99.90
16477;DHT22;8349;50.928;6.376;2022-09-06T09:06:19;23.80;99.90
16477;DHT22;8349;50.928;6.376;2022-09-06T09:08:49;23.90;99.90
16477;DHT22;8349;50.928;6.376;2022-09-06T09:11:19;24.00;99.90
16477;DHT22;8349;50.928;6.376;2022-09-06T09:13:51;24.20;99.90
16477;DHT22;8349;50.928;6.376;2022-09-06T09:16:19;24.30;99.90
16477;DHT22;8349;50.928;6.376;2022-09-06T09:18:46;24.40;99.90
16477;DHT22;8349;50.928;6.376;2022-09-06T09:21:15;24.50;99.90
16477;DHT22;8349;50.928;6.376;2022-09-06T09:23:45;24.70;99.90
16477;DHT22;8349;50.928;6.376;2022-09-06T09:26:16;24.80;99.90
16477;DHT22;8349;50.928;6.376;2022-09-06T09:31:31;24.90;99.90
16477;DHT22;8349;50.928;6.376;2022-09-06T09:33:59;25.10;99.90
16477;DHT22;8349;50.928;6.376;2022-09-06T09:36:29;25.10;99.90
16477;DHT22;8349;50.928;6.376;2022-09-06T09:38:57;25.30;99.90
16477;DHT22;8349;50.928;6.376;2022-09-06T09:41:25;25.40;99.90
16477;DHT22;8349;50.928;6.376;2022-09-06T09:43:55;25.50;99.90
16477;DHT22;8349;50.928;6.376;2022-09-06T09:46:29;25.70;99.90
16477;DHT22;8349;50.928;6.376;2022-09-06T09:49:02;25.70;99.90
16477;DHT22;8349;50.928;6.376;2022-09-06T09:51:29;25.90;99.90
16477;DHT22;8349;50.928;6.376;2022-09-06T09:53:58;26.00;99.90
16477;DHT22;8349;50.928;6.376;2022-09-06T09:56:26;26.00;99.90
16477;DHT22;8349;50.928;6.376;2022-09-06T09:58:53;26.10;99.90
16477;DHT22;8349;50.928;6.376;2022-09-06T10:01:21;26.20;99.90
16477;DHT22;8349;50.928;6.376;2022-09-06T10:03:50;26.20;99.90
16477;DHT22;8349;50.928;6.376;2022-09-06T10:06:23;26.30;99.90
16477;DHT22;8349;50.928;6.376;2022-09-06T10:08:51;26.40;99.90
16477;DHT22;8349;50.928;6.376;2022-09-06T10:14:09;26.50;99.90
16477;DHT22;8349;50.928;6.376;2022-09-06T10:16:40;26.60;99.90
16477;DHT22;8349;50.928;6.376;2022-09-06T10:19:12;26.70;99.90
16477;DHT22;8349;50.928;6.376;2022-09-06T10:21:46;26.80;99.90
16477;DHT22;8349;50.928;6.376;2022-09-06T10:24:14;27.00;99.90
16477;DHT22;8349;50.928;6.376;2022-09-06T10:26:47;27.20;99.90
16477;DHT22;8349;50.928;6.376;2022-09-06T10:29:18;27.30;99.90
16477;DHT22;8349;50.928;6.376;2022-09-06T10:31:54;27.30;99.90
16477;DHT22;8349;50.928;6.376;2022-09-06T10:34:31;27.40;99.90
16477;DHT22;8349;50.928;6.376;2022-09-06T10:37:02;27.50;99.90
16477;DHT22;8349;50.928;6.376;2022-09-06T10:39:33;27.70;99.90
16477;DHT22;8349;50.928;6.376;2022-09-06T10:42:05;27.70;99.90
16477;DHT22;8349;50.928;6.376;2022-09-06T10:44:43;27.80;99.90
16477;DHT22;8349;50.928;6.376;2022-09-06T10:47:12;27.90;99.90
16477;DHT22;8349;50.928;6.376;2022-09-06T10:49:40;28.00;99.90
16477;DHT22;8349;50.928;6.376;2022-09-06T10:52:10;28.10;99.90
16477;DHT22;8349;50.928;6.376;2022-09-06T10:54:38;28.30;99.90
16477;DHT22;8349;50.928;6.376;2022-09-06T10:57:07;28.60;99.90
16477;DHT22;8349;50.928;6.376;2022-09-06T10:59:37;28.70;99.90
16477;DHT22;8349;50.928;6.376;2022-09-06T11:02:09;29.00;99.90
16477;DHT22;8349;50.928;6.376;2022-09-06T11:04:41;29.20;99.90
16477;DHT22;8349;50.928;6.376;2022-09-06T11:07:10;29.30;99.90
16477;DHT22;8349;50.928;6.376;2022-09-06T11:09:42;29.60;99.90
16477;DHT22;8349;50.928;6.376;2022-09-06T11:12:11;29.60;99.90
16477;DHT22;8349;50.928;6.376;2022-09-06T11:14:40;29.90;99.90
16477;DHT22;8349;50.928;6.376;2022-09-06T11:17:10;29.80;99.90
16477;DHT22;8349;50.928;6.376;2022-09-06T11:19:41;29.90;99.90
16477;DHT22;8349;50.928;6.376;2022-09-06T11:22:31;30.10;99.90
16477;DHT22;8349;50.928;6.376;2022-09-06T11:25:24;30.20;99.90
16477;DHT22;8349;50.928;6.376;2022-09-06T11:27:52;31.30;99.90
16477;DHT22;8349;50.928;6.376;2022-09-06T11:30:20;35.90;99.90
16477;DHT22;8349;50.928;6.376;2022-09-06T11:32:48;37.10;99.90
16477;DHT22;8349;50.928;6.376;2022-09-06T11:35:23;39.30;99.90
16477;DHT22;8349;50.928;6.376;2022-09-06T11:37:57;38.10;99.90
16477;DHT22;8349;50.928;6.376;2022-09-06T11:40:25;39.20;99.90
16477;DHT22;8349;50.928;6.376;2022-09-06T11:43:07;39.50;99.90
16477;DHT22;8349;50.928;6.376;2022-09-06T11:45:38;39.70;99.90
16477;DHT22;8349;50.928;6.376;2022-09-06T11:51:01;42.00;99.90
16477;DHT22;8349;50.928;6.376;2022-09-06T11:53:31;42.00;98.10
16477;DHT22;8349;50.928;6.376;2022-09-06T11:56:09;42.30;95.00
16477;DHT22;8349;50.928;6.376;2022-09-06T11:58:43;42.80;94.10
16477;DHT22;8349;50.928;6.376;2022-09-06T12:04:00;44.80;93.20
16477;DHT22;8349;50.928;6.376;2022-09-06T12:06:29;43.40;91.10
16477;DHT22;8349;50.928;6.376;2022-09-06T12:08:57;42.20;92.00
16477;DHT22;8349;50.928;6.376;2022-09-06T12:11:28;41.80;92.30
16477;DHT22;8349;50.928;6.376;2022-09-06T12:13:59;41.80;91.20
16477;DHT22;8349;50.928;6.376;2022-09-06T12:19:13;40.60;90.90
16477;DHT22;8349;50.928;6.376;2022-09-06T12:21:57;41.10;91.50
16477;DHT22;8349;50.928;6.376;2022-09-06T12:27:13;41.70;90.20
16477;DHT22;8349;50.928;6.376;2022-09-06T12:29:48;41.40;90.30
16477;DHT22;8349;50.928;6.376;2022-09-06T12:32:17;41.10;89.90
16477;DHT22;8349;50.928;6.376;2022-09-06T12:34:45;42.80;90.20
16477;DHT22;8349;50.928;6.376;2022-09-06T12:37:13;42.80;89.40
16477;DHT22;8349;50.928;6.376;2022-09-06T12:39:40;41.90;87.00
16477;DHT22;8349;50.928;6.376;2022-09-06T12:42:21;40.40;88.60
16477;DHT22;8349;50.928;6.376;2022-09-06T12:44:48;40.60;89.70
16477;DHT22;8349;50.928;6.376;2022-09-06T12:47:17;39.50;90.10
16477;DHT22;8349;50.928;6.376;2022-09-06T12:49:58;40.30;90.50
16477;DHT22;8349;50.928;6.376;2022-09-06T12:52:30;39.50;90.10
16477;DHT22;8349;50.928;6.376;2022-09-06T12:54:57;39.90;90.10
16477;DHT22;8349;50.928;6.376;2022-09-06T12:57:25;39.30;90.10
16477;DHT22;8349;50.928;6.376;2022-09-06T12:59:52;38.80;90.10
16477;DHT22;8349;50.928;6.376;2022-09-06T13:02:21;39.80;90.40
16477;DHT22;8349;50.928;6.376;2022-09-06T13:04:50;39.80;90.30
16477;DHT22;8349;50.928;6.376;2022-09-06T13:07:18;40.10;90.20
16477;DHT22;8349;50.928;6.376;2022-09-06T13:09:47;40.50;90.10
16477;DHT22;8349;50.928;6.376;2022-09-06T13:12:16;38.80;90.30
16477;DHT22;8349;50.928;6.376;2022-09-06T13:14:45;38.70;90.10
16477;DHT22;8349;50.928;6.376;2022-09-06T13:17:21;38.90;89.90
16477;DHT22;8349;50.928;6.376;2022-09-06T13:19:48;39.50;88.20
16477;DHT22;8349;50.928;6.376;2022-09-06T13:24:58;39.40;86.90
16477;DHT22;8349;50.928;6.376;2022-09-06T13:27:25;38.70;86.30
16477;DHT22;8349;50.928;6.376;2022-09-06T13:29:58;39.30;87.50
16477;DHT22;8349;50.928;6.376;2022-09-06T13:32:25;39.30;86.10
16477;DHT22;8349;50.928;6.376;2022-09-06T13:34:52;38.60;86.20
16477;DHT22;8349;50.928;6.376;2022-09-06T13:37:22;39.70;87.50
16477;DHT22;8349;50.928;6.376;2022-09-06T13:39:50;39.60;87.00
16477;DHT22;8349;50.928;6.376;2022-09-06T13:42:25;39.80;87.10
16477;DHT22;8349;50.928;6.376;2022-09-06T13:44:53;40.20;87.50
16477;DHT22;8349;50.928;6.376;2022-09-06T13:47:19;41.20;87.50
16477;DHT22;8349;50.928;6.376;2022-09-06T13:49:46;42.20;86.40
16477;DHT22;8349;50.928;6.376;2022-09-06T13:52:13;42.80;85.90
16477;DHT22;8349;50.928;6.376;2022-09-06T13:54:40;43.00;85.50
16477;DHT22;8349;50.928;6.376;2022-09-06T13:57:07;43.00;85.40
16477;DHT22;8349;50.928;6.376;2022-09-06T13:59:35;42.50;85.30
16477;DHT22;8349;50.928;6.376;2022-09-06T14:02:03;42.80;84.60
16477;DHT22;8349;50.928;6.376;2022-09-06T14:04:30;41.90;82.40
16477;DHT22;8349;50.928;6.376;2022-09-06T14:06:57;41.50;82.70
16477;DHT22;8349;50.928;6.376;2022-09-06T14:09:24;41.70;82.00
16477;DHT22;8349;50.928;6.376;2022-09-06T14:11:50;41.90;82.30
16477;DHT22;8349;50.928;6.376;2022-09-06T14:14:17;41.80;82.20
16477;DHT22;8349;50.928;6.376;2022-09-06T14:16:45;41.50;81.80
16477;DHT22;8349;50.928;6.376;2022-09-06T14:19:13;42.00;82.40
16477;DHT22;8349;50.928;6.376;2022-09-06T14:21:39;42.80;82.30
16477;DHT22;8349;50.928;6.376;2022-09-06T14:24:06;42.80;82.50
16477;DHT22;8349;50.928;6.376;2022-09-06T14:26:34;42.10;83.10
16477;DHT22;8349;50.928;6.376;2022-09-06T14:29:01;42.70;82.90
16477;DHT22;8349;50.928;6.376;2022-09-06T14:31:28;43.90;81.20
16477;DHT22;8349;50.928;6.376;2022-09-06T14:33:58;44.40;81.70
16477;DHT22;8349;50.928;6.376;2022-09-06T14:36:26;44.80;79.10
16477;DHT22;8349;50.928;6.376;2022-09-06T14:38:55;44.80;79.40
16477;DHT22;8349;50.928;6.376;2022-09-06T14:41:22;44.60;77.90
16477;DHT22;8349;50.928;6.376;2022-09-06T14:43:49;43.40;78.40
16477;DHT22;8349;50.928;6.376;2022-09-06T14:46:17;43.10;78.80
16477;DHT22;8349;50.928;6.376;2022-09-06T14:48:44;43.80;79.60
16477;DHT22;8349;50.928;6.376;2022-09-06T14:51:13;44.00;79.40
16477;DHT22;8349;50.928;6.376;2022-09-06T14:53:42;43.50;79.00
16477;DHT22;8349;50.928;6.376;2022-09-06T14:56:09;43.70;78.30
16477;DHT22;8349;50.928;6.376;2022-09-06T14:58:37;43.30;78.90
16477;DHT22;8349;50.928;6.376;2022-09-06T15:01:08;44.00;79.40
16477;DHT22;8349;50.928;6.376;2022-09-06T15:03:36;43.90;79.30
16477;DHT22;8349;50.928;6.376;2022-09-06T15:06:02;43.60;79.30
16477;DHT22;8349;50.928;6.376;2022-09-06T15:08:31;42.80;79.60
16477;DHT22;8349;50.928;6.376;2022-09-06T15:10:58;42.90;80.00
16477;DHT22;8349;50.928;6.376;2022-09-06T15:13:25;43.30;80.00
16477;DHT22;8349;50.928;6.376;2022-09-06T15:15:52;44.00;79.40
16477;DHT22;8349;50.928;6.376;2022-09-06T15:18:19;44.30;79.60
16477;DHT22;8349;50.928;6.376;2022-09-06T15:20:46;43.90;79.30
16477;DHT22;8349;50.928;6.376;2022-09-06T15:23:12;43.50;79.30
16477;DHT22;8349;50.928;6.376;2022-09-06T15:25:45;43.30;80.00
16477;DHT22;8349;50.928;6.376;2022-09-06T15:28:12;42.80;79.10
16477;DHT22;8349;50.928;6.376;2022-09-06T15:30:39;42.30;80.10
16477;DHT22;8349;50.928;6.376;2022-09-06T15:33:06;42.20;80.10
16477;DHT22;8349;50.928;6.376;2022-09-06T15:35:34;42.20;80.40
16477;DHT22;8349;50.928;6.376;2022-09-06T15:38:02;42.60;79.50
16477;DHT22;8349;50.928;6.376;2022-09-06T15:40:28;43.00;79.60
16477;DHT22;8349;50.928;6.376;2022-09-06T15:42:57;42.90;79.20
16477;DHT22;8349;50.928;6.376;2022-09-06T15:45:23;42.90;78.90
16477;DHT22;8349;50.928;6.376;2022-09-06T15:47:50;42.80;77.90
16477;DHT22;8349;50.928;6.376;2022-09-06T15:50:18;42.70;77.70
16477;DHT22;8349;50.928;6.376;2022-09-06T15:52:45;42.20;76.40
16477;DHT22;8349;50.928;6.376;2022-09-06T15:55:11;41.40;76.30
16477;DHT22;8349;50.928;6.376;2022-09-06T15:57:57;40.60;76.90
16477;DHT22;8349;50.928;6.376;2022-09-06T16:00:26;39.90;78.50
16477;DHT22;8349;50.928;6.376;2022-09-06T16:02:53;39.60;79.80
16477;DHT22;8349;50.928;6.376;2022-09-06T16:05:21;39.30;79.80
16477;DHT22;8349;50.928;6.376;2022-09-06T16:07:48;39.10;80.20
16477;DHT22;8349;50.928;6.376;2022-09-06T16:10:15;38.80;81.30
16477;DHT22;8349;50.928;6.376;2022-09-06T16:12:41;39.00;81.50